createdAt,value
2019-03-03T00:01:46.417Z,990.25
2019-03-03T00:03:46.365Z,990.29
2019-03-03T00:05:46.400Z,990.08
2019-03-03T00:07:46.555Z,990.58
2019-03-03T00:09:46.364Z,990.41
2019-03-03T00:11:46.329Z,990.47
2019-03-03T00:13:46.418Z,990.46
2019-03-03T00:15:46.603Z,990.34
2019-03-03T00:17:46.624Z,990.75
2019-03-03T00:19:46.661Z,990.58
2019-03-03T00:21:46.642Z,990.51
2019-03-03T00:23:46.606Z,990.57
2019-03-03T00:25:46.682Z,990.60
2019-03-03T00:27:46.480Z,990.55
2019-03-03T00:29:46.892Z,990.70
2019-03-03T00:31:46.919Z,990.60
2019-03-03T00:33:46.531Z,991.05
2019-03-03T00:35:46.724Z,990.31
2019-03-03T00:37:46.522Z,990.37
2019-03-03T00:39:46.749Z,990.78
2019-03-03T00:41:46.611Z,990.41
2019-03-03T00:43:46.662Z,990.58
2019-03-03T00:45:46.646Z,990.46
2019-03-03T00:47:46.564Z,990.79
2019-03-03T00:49:46.608Z,990.46
2019-03-03T00:51:46.612Z,990.62
2019-03-03T00:53:46.684Z,990.84
2019-03-03T00:55:46.938Z,990.50
2019-03-03T00:57:46.959Z,990.27
2019-03-03T00:59:46.838Z,990.19
2019-03-03T01:01:46.878Z,990.49
2019-03-03T01:03:46.592Z,990.50
2019-03-03T01:05:46.492Z,990.29
2019-03-03T01:07:46.704Z,990.28
2019-03-03T01:09:46.915Z,990.54
2019-03-03T01:11:46.731Z,990.40
2019-03-03T01:13:46.424Z,990.44
2019-03-03T01:15:46.748Z,989.87
2019-03-03T01:17:46.762Z,990.56
2019-03-03T01:19:46.674Z,990.39
2019-03-03T01:21:46.889Z,989.95
2019-03-03T01:23:46.689Z,990.05
2019-03-03T01:25:46.502Z,990.17
2019-03-03T01:27:46.514Z,990.14
2019-03-03T01:29:46.729Z,990.30
2019-03-03T01:31:46.744Z,990.39
2019-03-03T01:33:46.550Z,990.22
2019-03-03T01:35:46.712Z,989.98
2019-03-03T01:37:46.582Z,990.35
2019-03-03T01:39:46.786Z,990.12
2019-03-03T01:41:46.757Z,990.23
2019-03-03T01:43:47.033Z,989.99
2019-03-03T01:45:46.617Z,990.19
2019-03-03T01:47:46.633Z,989.81
2019-03-03T01:49:46.759Z,989.81
2019-03-03T01:51:46.687Z,990.16
2019-03-03T01:53:46.604Z,990.17
2019-03-03T01:55:46.775Z,989.92
2019-03-03T01:57:46.591Z,990.05
2019-03-03T01:59:46.761Z,989.69
2019-03-03T02:01:46.815Z,989.95
2019-03-03T02:03:46.626Z,989.72
2019-03-03T02:05:46.597Z,990.05
2019-03-03T02:07:46.582Z,989.99
2019-03-03T02:09:46.652Z,989.64
2019-03-03T02:11:46.466Z,989.82
2019-03-03T02:13:46.594Z,989.63
2019-03-03T02:15:46.588Z,989.64
2019-03-03T02:17:46.603Z,990.03
2019-03-03T02:19:46.815Z,989.89
2019-03-03T02:21:46.727Z,989.66
2019-03-03T02:23:46.671Z,989.99
2019-03-03T02:25:46.916Z,989.91
2019-03-03T02:27:46.763Z,989.81
2019-03-03T02:29:46.522Z,989.55
2019-03-03T02:31:46.568Z,989.49
2019-03-03T02:33:46.588Z,989.83
2019-03-03T02:35:46.702Z,989.57
2019-03-03T02:37:46.812Z,989.70
2019-03-03T02:39:46.623Z,989.84
2019-03-03T02:41:46.437Z,989.58
2019-03-03T02:43:46.683Z,989.83
2019-03-03T02:45:46.966Z,989.75
2019-03-03T02:47:46.568Z,989.89
2019-03-03T02:49:46.797Z,990.06
2019-03-03T02:51:46.617Z,989.94
2019-03-03T02:53:46.777Z,989.81
2019-03-03T02:55:46.643Z,989.87
2019-03-03T02:57:46.938Z,989.25
2019-03-03T02:59:46.480Z,989.35
2019-03-03T03:01:46.690Z,989.51
2019-03-03T03:03:46.732Z,989.51
2019-03-03T03:05:46.583Z,989.39
2019-03-03T03:07:46.587Z,989.43
2019-03-03T03:09:46.533Z,989.66
2019-03-03T03:11:46.706Z,989.40
2019-03-03T03:13:46.513Z,989.68
2019-03-03T03:15:46.530Z,989.44
2019-03-03T03:17:46.633Z,989.33
2019-03-03T03:19:46.739Z,989.52
2019-03-03T03:21:46.564Z,989.67
2019-03-03T03:23:46.778Z,989.62
2019-03-03T03:25:46.791Z,989.64
2019-03-03T03:27:46.804Z,989.25
2019-03-03T03:29:46.746Z,989.37
2019-03-03T03:31:47.445Z,989.55
2019-03-03T03:33:46.836Z,989.28
2019-03-03T03:35:46.641Z,988.96
2019-03-03T03:37:46.865Z,989.11
2019-03-03T03:39:46.503Z,989.25
2019-03-03T03:41:46.581Z,989.23
2019-03-03T03:43:46.792Z,989.22
2019-03-03T03:45:46.599Z,989.38
2019-03-03T03:47:46.623Z,989.41
2019-03-03T03:49:46.825Z,989.51
2019-03-03T03:51:46.808Z,989.31
2019-03-03T03:53:46.805Z,989.39
2019-03-03T03:55:47.087Z,989.34
2019-03-03T03:57:46.579Z,989.41
2019-03-03T03:59:46.885Z,989.32
2019-03-03T04:01:46.640Z,989.08
2019-03-03T04:03:46.670Z,988.94
2019-03-03T04:05:46.717Z,988.96
2019-03-03T04:07:46.724Z,989.16
2019-03-03T04:09:46.950Z,989.07
2019-03-03T04:11:46.923Z,989.04
2019-03-03T04:13:46.589Z,988.85
2019-03-03T04:15:46.764Z,989.24
2019-03-03T04:17:46.787Z,989.22
2019-03-03T04:19:46.830Z,989.25
2019-03-03T04:21:46.716Z,988.97
2019-03-03T04:23:46.516Z,988.76
2019-03-03T04:25:46.939Z,989.25
2019-03-03T04:27:46.491Z,988.90
2019-03-03T04:29:46.752Z,989.13
2019-03-03T04:31:46.775Z,988.98
2019-03-03T04:33:46.713Z,988.45
2019-03-03T04:35:46.792Z,988.99
2019-03-03T04:37:46.601Z,988.79
2019-03-03T04:39:47.021Z,989.08
2019-03-03T04:41:47.131Z,988.75
2019-03-03T04:43:46.952Z,988.45
2019-03-03T04:45:46.678Z,988.85
2019-03-03T04:47:46.547Z,988.60
2019-03-03T04:49:46.974Z,988.56
2019-03-03T04:51:46.937Z,988.85
2019-03-03T04:53:46.789Z,988.75
2019-03-03T04:55:47.006Z,988.68
2019-03-03T04:57:46.560Z,988.55
2019-03-03T04:59:46.829Z,988.41
2019-03-03T05:01:46.726Z,988.79
2019-03-03T05:03:46.860Z,988.58
2019-03-03T05:05:46.667Z,988.47
2019-03-03T05:07:47.181Z,988.62
2019-03-03T05:09:46.682Z,988.68
2019-03-03T05:11:47.470Z,988.47
2019-03-03T05:13:46.902Z,988.67
2019-03-03T05:15:46.646Z,988.79
2019-03-03T05:17:47.132Z,988.42
2019-03-03T05:19:46.838Z,988.43
2019-03-03T05:21:46.745Z,988.46
2019-03-03T05:23:46.762Z,988.52
2019-03-03T05:25:47.079Z,988.62
2019-03-03T05:27:46.585Z,988.67
2019-03-03T05:29:46.915Z,988.47
2019-03-03T05:31:46.675Z,988.26
2019-03-03T05:33:46.866Z,988.14
2019-03-03T05:35:46.613Z,988.10
2019-03-03T05:37:46.827Z,988.53
2019-03-03T05:39:47.057Z,988.13
2019-03-03T05:41:46.863Z,988.58
2019-03-03T05:43:46.870Z,988.53
2019-03-03T05:45:46.843Z,988.12
2019-03-03T05:47:46.895Z,988.41
2019-03-03T05:49:46.878Z,988.30
2019-03-03T05:51:46.727Z,988.22
2019-03-03T05:53:46.930Z,988.29
2019-03-03T05:55:46.947Z,987.96
2019-03-03T05:57:47.004Z,988.19
2019-03-03T05:59:46.738Z,987.81
2019-03-03T06:01:47.200Z,988.23
2019-03-03T06:03:46.795Z,988.02
2019-03-03T06:05:47.495Z,987.78
2019-03-03T06:07:46.711Z,988.10
2019-03-03T06:09:46.888Z,987.73
2019-03-03T06:11:47.082Z,988.13
2019-03-03T06:13:46.791Z,987.93
2019-03-03T06:15:46.862Z,987.82
2019-03-03T06:17:46.671Z,987.93
2019-03-03T06:19:46.880Z,988.09
2019-03-03T06:21:46.747Z,987.77
2019-03-03T06:23:46.808Z,988.27
2019-03-03T06:25:46.847Z,987.86
2019-03-03T06:27:46.926Z,988.07
2019-03-03T06:29:46.942Z,988.00
2019-03-03T06:31:46.881Z,988.46
2019-03-03T06:33:46.762Z,987.95
2019-03-03T06:35:46.773Z,988.27
2019-03-03T06:37:46.977Z,988.19
2019-03-03T06:39:46.797Z,988.23
2019-03-03T06:41:47.767Z,988.23
2019-03-03T06:43:47.204Z,988.16
2019-03-03T06:45:48.006Z,988.01
2019-03-03T06:47:46.905Z,988.13
2019-03-03T06:49:47.163Z,987.91
2019-03-03T06:51:46.755Z,988.35
2019-03-03T06:53:46.588Z,988.11
2019-03-03T06:55:46.825Z,988.12
2019-03-03T06:57:46.691Z,988.38
2019-03-03T06:59:47.009Z,988.13
2019-03-03T07:01:47.031Z,987.83
2019-03-03T07:03:47.034Z,988.24
2019-03-03T07:05:46.734Z,988.01
2019-03-03T07:07:47.066Z,988.18
2019-03-03T07:09:46.766Z,988.22
2019-03-03T07:11:46.623Z,988.07
2019-03-03T07:13:47.097Z,988.54
2019-03-03T07:15:46.827Z,987.81
2019-03-03T07:17:46.659Z,988.05
2019-03-03T07:19:46.992Z,987.94
2019-03-03T07:21:46.626Z,988.20
2019-03-03T07:23:46.988Z,988.10
2019-03-03T07:25:46.849Z,987.96
2019-03-03T07:27:47.278Z,988.17
2019-03-03T07:29:46.879Z,988.39
2019-03-03T07:31:46.895Z,988.14
2019-03-03T07:33:46.907Z,988.23
2019-03-03T07:35:46.847Z,987.82
2019-03-03T07:37:46.676Z,988.13
2019-03-03T07:39:46.847Z,988.05
2019-03-03T07:41:46.751Z,988.24
2019-03-03T07:43:46.962Z,988.16
2019-03-03T07:45:46.774Z,987.89
2019-03-03T07:47:46.780Z,988.28
2019-03-03T07:49:46.994Z,988.30
2019-03-03T07:51:47.009Z,987.84
2019-03-03T07:53:47.014Z,988.05
2019-03-03T07:55:46.796Z,988.61
2019-03-03T07:57:47.765Z,988.27
2019-03-03T07:59:47.121Z,988.29
2019-03-03T08:01:46.517Z,988.15
2019-03-03T08:03:47.936Z,988.30
2019-03-03T08:05:46.917Z,988.01
2019-03-03T08:07:47.010Z,988.00
2019-03-03T08:09:46.628Z,988.55
2019-03-03T08:11:46.718Z,988.26
2019-03-03T08:13:46.945Z,987.93
2019-03-03T08:15:46.741Z,988.12
2019-03-03T08:17:46.915Z,988.48
2019-03-03T08:19:46.974Z,988.11
2019-03-03T08:21:46.528Z,988.46
2019-03-03T08:23:46.533Z,987.86
2019-03-03T08:25:46.914Z,988.23
2019-03-03T08:27:46.603Z,987.81
2019-03-03T08:29:46.572Z,988.17
2019-03-03T08:31:46.832Z,987.99
2019-03-03T08:33:46.810Z,988.25
2019-03-03T08:35:46.657Z,987.86
2019-03-03T08:37:47.069Z,988.01
2019-03-03T08:39:46.778Z,987.81
2019-03-03T08:41:46.861Z,988.00
2019-03-03T08:43:46.910Z,988.16
2019-03-03T08:45:46.646Z,988.14
2019-03-03T08:47:53.200Z,988.09
2019-03-03T08:49:47.148Z,988.26
2019-03-03T08:51:46.838Z,988.16
2019-03-03T08:53:46.612Z,987.96
2019-03-03T08:55:47.284Z,988.19
2019-03-03T08:57:46.890Z,988.05
2019-03-03T08:59:46.695Z,988.20
2019-03-03T09:01:46.902Z,987.91
2019-03-03T09:03:46.654Z,988.23
2019-03-03T09:05:46.923Z,987.79
2019-03-03T09:07:47.142Z,987.82
2019-03-03T09:09:46.920Z,987.63
2019-03-03T09:11:46.760Z,987.66
2019-03-03T09:13:47.174Z,987.63
2019-03-03T09:15:47.085Z,987.65
2019-03-03T09:17:46.897Z,987.63
2019-03-03T09:19:46.919Z,987.56
2019-03-03T09:21:46.725Z,987.89
2019-03-03T09:23:46.728Z,987.55
2019-03-03T09:25:46.812Z,987.94
2019-03-03T09:27:46.878Z,987.28
2019-03-03T09:29:46.761Z,987.44
2019-03-03T09:31:46.967Z,987.49
2019-03-03T09:33:46.786Z,987.77
2019-03-03T09:35:46.745Z,987.94
2019-03-03T09:37:46.781Z,987.82
2019-03-03T09:39:46.821Z,987.68
2019-03-03T09:41:46.784Z,987.78
2019-03-03T09:43:47.156Z,987.55
2019-03-03T09:45:47.014Z,987.85
2019-03-03T09:47:46.819Z,987.68
2019-03-03T09:49:46.639Z,987.68
2019-03-03T09:51:47.102Z,987.74
2019-03-03T09:53:46.885Z,987.83
2019-03-03T09:55:46.705Z,987.39
2019-03-03T09:57:46.828Z,987.75
2019-03-03T09:59:46.820Z,987.65
2019-03-03T10:01:47.051Z,987.48
2019-03-03T10:03:46.821Z,987.78
2019-03-03T10:05:47.272Z,987.67
2019-03-03T10:07:47.087Z,987.53
2019-03-03T10:09:46.894Z,987.50
2019-03-03T10:11:47.082Z,987.53
2019-03-03T10:13:46.887Z,987.62
2019-03-03T10:15:46.827Z,987.70
2019-03-03T10:17:47.443Z,987.54
2019-03-03T10:19:46.844Z,987.76
2019-03-03T10:21:46.841Z,987.44
2019-03-03T10:23:47.044Z,987.54
2019-03-03T10:25:46.860Z,987.65
2019-03-03T10:27:47.252Z,987.72
2019-03-03T10:29:46.960Z,987.46
2019-03-03T10:31:48.030Z,987.40
2019-03-03T10:33:47.237Z,987.80
2019-03-03T10:35:47.079Z,987.94
2019-03-03T10:37:47.088Z,987.40
2019-03-03T10:39:47.276Z,987.75
2019-03-03T10:41:46.821Z,987.27
2019-03-03T10:43:47.010Z,987.70
2019-03-03T10:45:47.310Z,987.66
2019-03-03T10:47:46.961Z,987.55
2019-03-03T10:49:47.072Z,987.54
2019-03-03T10:51:47.239Z,987.43
2019-03-03T10:53:46.846Z,987.48
2019-03-03T10:55:46.833Z,987.56
2019-03-03T10:57:47.069Z,987.85
2019-03-03T10:59:54.794Z,987.35
2019-03-03T11:01:46.890Z,987.51
2019-03-03T11:03:47.318Z,987.27
2019-03-03T11:05:47.055Z,987.44
2019-03-03T11:07:47.336Z,987.37
2019-03-03T11:09:47.263Z,986.93
2019-03-03T11:11:47.389Z,987.50
2019-03-03T11:13:47.183Z,987.20
2019-03-03T11:15:47.380Z,987.12
2019-03-03T11:17:47.267Z,987.37
2019-03-03T11:19:47.097Z,987.46
2019-03-03T11:21:47.022Z,986.99
2019-03-03T11:23:47.046Z,987.29
2019-03-03T11:25:46.932Z,987.35
2019-03-03T11:27:47.145Z,987.11
2019-03-03T11:29:46.948Z,987.72
2019-03-03T11:31:47.163Z,987.23
2019-03-03T11:33:47.379Z,987.33
2019-03-03T11:35:47.406Z,987.01
2019-03-03T11:37:46.791Z,987.07
2019-03-03T11:39:47.359Z,987.22
2019-03-03T11:41:46.946Z,987.06
2019-03-03T11:43:46.805Z,987.08
2019-03-03T11:45:47.040Z,986.99
2019-03-03T11:47:47.380Z,987.18
2019-03-03T11:49:47.061Z,986.55
2019-03-03T11:51:47.087Z,986.99
2019-03-03T11:53:47.021Z,987.11
2019-03-03T11:55:47.065Z,986.93
2019-03-03T11:57:47.013Z,986.96
2019-03-03T11:59:46.812Z,986.68
2019-03-03T12:01:47.032Z,986.80
2019-03-03T12:03:47.048Z,986.83
2019-03-03T12:05:46.811Z,987.06
2019-03-03T12:07:47.020Z,986.58
2019-03-03T12:09:47.005Z,986.78
2019-03-03T12:11:47.025Z,986.86
2019-03-03T12:13:47.097Z,986.86
2019-03-03T12:15:47.115Z,986.71
2019-03-03T12:17:47.536Z,986.60
2019-03-03T12:19:47.072Z,986.86
2019-03-03T12:21:47.128Z,986.53
2019-03-03T12:23:46.765Z,986.67
2019-03-03T12:25:47.476Z,986.61
2019-03-03T12:27:46.873Z,986.50
2019-03-03T12:29:47.174Z,986.39
2019-03-03T12:31:47.409Z,986.95
2019-03-03T12:33:47.360Z,986.54
2019-03-03T12:35:47.230Z,986.49
2019-03-03T12:37:47.242Z,986.47
2019-03-03T12:39:47.257Z,986.76
2019-03-03T12:41:46.851Z,986.34
2019-03-03T12:43:47.381Z,986.70
2019-03-03T12:45:46.963Z,986.63
2019-03-03T12:47:47.375Z,986.51
2019-03-03T12:49:47.614Z,986.64
2019-03-03T12:51:47.562Z,986.64
2019-03-03T12:53:47.422Z,986.69
2019-03-03T12:55:47.658Z,986.46
2019-03-03T12:57:47.668Z,985.99
2019-03-03T12:59:46.967Z,986.55
2019-03-03T13:01:47.545Z,986.58
2019-03-03T13:03:47.002Z,986.26
2019-03-03T13:05:47.507Z,986.32
2019-03-03T13:07:47.349Z,986.45
2019-03-03T13:09:47.427Z,986.37
2019-03-03T13:11:47.131Z,986.32
2019-03-03T13:13:47.119Z,986.30
2019-03-03T13:15:47.101Z,986.24
2019-03-03T13:17:48.432Z,986.08
2019-03-03T13:19:47.176Z,986.05
2019-03-03T13:21:47.186Z,985.98
2019-03-03T13:23:47.004Z,985.93
2019-03-03T13:25:46.979Z,986.02
2019-03-03T13:27:47.048Z,985.64
2019-03-03T13:29:47.325Z,985.93
2019-03-03T13:31:47.297Z,986.02
2019-03-03T13:33:47.121Z,985.75
2019-03-03T13:35:46.921Z,985.88
2019-03-03T13:37:47.290Z,985.92
2019-03-03T13:39:47.513Z,986.17
2019-03-03T13:41:47.329Z,985.91
2019-03-03T13:43:47.419Z,985.93
2019-03-03T13:45:47.225Z,986.24
2019-03-03T13:47:47.235Z,985.53
2019-03-03T13:49:47.256Z,985.71
2019-03-03T13:51:47.274Z,985.76
2019-03-03T13:53:47.070Z,985.79
2019-03-03T13:55:47.068Z,985.52
2019-03-03T13:57:47.040Z,985.49
2019-03-03T13:59:47.289Z,985.64
2019-03-03T14:01:47.332Z,985.52
2019-03-03T14:03:47.305Z,985.52
2019-03-03T14:05:47.750Z,985.65
2019-03-03T14:07:46.895Z,985.49
2019-03-03T14:09:47.170Z,985.42
2019-03-03T14:11:47.112Z,985.69
2019-03-03T14:13:47.806Z,985.33
2019-03-03T14:15:47.612Z,985.53
2019-03-03T14:17:47.820Z,985.39
2019-03-03T14:19:47.193Z,985.60
2019-03-03T14:21:46.975Z,985.50
2019-03-03T14:23:47.255Z,985.34
2019-03-03T14:25:47.247Z,985.16
2019-03-03T14:27:47.163Z,985.17
2019-03-03T14:29:47.276Z,985.03
2019-03-03T14:31:46.994Z,985.26
2019-03-03T14:33:47.512Z,985.34
2019-03-03T14:35:47.111Z,985.32
2019-03-03T14:37:47.844Z,985.12
2019-03-03T14:39:47.148Z,985.15
2019-03-03T14:41:48.268Z,985.09
2019-03-03T14:43:47.340Z,985.05
2019-03-03T14:45:47.469Z,985.13
2019-03-03T14:47:47.095Z,984.77
2019-03-03T14:49:47.689Z,985.19
2019-03-03T14:51:47.197Z,984.80
2019-03-03T14:53:47.227Z,985.05
2019-03-03T14:55:47.430Z,984.98
2019-03-03T14:57:47.154Z,985.10
2019-03-03T14:59:47.349Z,985.34
2019-03-03T15:01:47.691Z,984.98
2019-03-03T15:03:47.587Z,985.18
2019-03-03T15:05:47.794Z,985.20
2019-03-03T15:07:47.602Z,984.79
2019-03-03T15:09:47.623Z,985.29
2019-03-03T15:11:47.222Z,985.05
2019-03-03T15:13:47.350Z,985.03
2019-03-03T15:15:47.449Z,984.54
2019-03-03T15:17:47.175Z,985.11
2019-03-03T15:19:47.212Z,984.99
2019-03-03T15:21:47.074Z,984.70
2019-03-03T15:23:47.237Z,985.32
2019-03-03T15:25:47.404Z,985.08
2019-03-03T15:27:47.519Z,984.82
2019-03-03T15:29:47.339Z,985.09
2019-03-03T15:31:47.125Z,985.09
2019-03-03T15:33:47.755Z,985.33
2019-03-03T15:35:47.359Z,984.82
2019-03-03T15:37:47.720Z,984.79
2019-03-03T15:39:47.795Z,985.07
2019-03-03T15:41:47.597Z,985.01
2019-03-03T15:43:48.707Z,984.88
2019-03-03T15:45:47.820Z,985.05
2019-03-03T15:47:47.833Z,984.77
2019-03-03T15:49:47.646Z,985.15
2019-03-03T15:51:47.856Z,985.46
2019-03-03T15:53:47.671Z,984.81
2019-03-03T15:55:47.725Z,984.92
2019-03-03T15:57:47.604Z,985.37
2019-03-03T15:59:47.472Z,984.80
2019-03-03T16:01:47.717Z,984.56
2019-03-03T16:03:47.596Z,984.68
2019-03-03T16:05:47.841Z,984.91
2019-03-03T16:07:47.861Z,984.94
2019-03-03T16:09:47.861Z,985.07
2019-03-03T16:11:47.677Z,984.91
2019-03-03T16:13:47.608Z,984.60
2019-03-03T16:15:47.487Z,984.83
2019-03-03T16:17:48.881Z,984.63
2019-03-03T16:19:47.650Z,984.46
2019-03-03T16:21:47.730Z,984.58
2019-03-03T16:23:47.530Z,984.61
2019-03-03T16:25:47.534Z,984.55
2019-03-03T16:27:47.554Z,984.40
2019-03-03T16:29:47.430Z,984.58
2019-03-03T16:31:47.881Z,984.57
2019-03-03T16:33:47.703Z,984.46
2019-03-03T16:35:47.486Z,984.34
2019-03-03T16:37:47.646Z,984.23
2019-03-03T16:39:47.735Z,984.28
2019-03-03T16:41:47.642Z,984.33
2019-03-03T16:43:47.556Z,984.31
2019-03-03T16:45:47.666Z,984.21
2019-03-03T16:47:47.476Z,984.40
2019-03-03T16:49:47.795Z,984.56
2019-03-03T16:51:47.691Z,984.34
2019-03-03T16:53:47.715Z,984.41
2019-03-03T16:55:47.928Z,984.43
2019-03-03T16:57:47.506Z,984.24
2019-03-03T16:59:48.159Z,983.89
2019-03-03T17:01:47.763Z,984.18
2019-03-03T17:03:47.767Z,984.16
2019-03-03T17:05:47.693Z,984.00
2019-03-03T17:07:47.789Z,984.10
2019-03-03T17:09:47.726Z,983.94
2019-03-03T17:11:47.706Z,983.91
2019-03-03T17:13:47.825Z,984.36
2019-03-03T17:15:47.839Z,984.47
2019-03-03T17:17:47.646Z,984.00
2019-03-03T17:19:47.871Z,984.07
2019-03-03T17:21:47.883Z,984.12
2019-03-03T17:23:47.888Z,984.21
2019-03-03T17:25:47.834Z,984.12
2019-03-03T17:27:47.716Z,984.15
2019-03-03T17:29:47.925Z,984.04
2019-03-03T17:31:47.936Z,983.94
2019-03-03T17:33:47.480Z,984.24
2019-03-03T17:35:47.753Z,984.31
2019-03-03T17:37:47.691Z,983.75
2019-03-03T17:39:47.653Z,984.11
2019-03-03T17:41:47.707Z,983.79
2019-03-03T17:43:47.802Z,984.33
2019-03-03T17:45:47.715Z,984.00
2019-03-03T17:47:47.726Z,983.92
2019-03-03T17:49:47.630Z,983.97
2019-03-03T17:51:47.553Z,983.96
2019-03-03T17:53:47.618Z,983.97
2019-03-03T17:55:47.780Z,983.68
2019-03-03T17:57:47.677Z,983.85
2019-03-03T17:59:47.815Z,983.66
2019-03-03T18:01:47.696Z,983.66
2019-03-03T18:03:47.620Z,983.97
2019-03-03T18:05:47.602Z,983.78
2019-03-03T18:07:48.009Z,983.95
2019-03-03T18:09:47.858Z,984.06
2019-03-03T18:11:48.167Z,983.80
2019-03-03T18:13:47.983Z,983.77
2019-03-03T18:15:47.561Z,983.39
2019-03-03T18:17:47.790Z,983.65
2019-03-03T18:19:47.806Z,983.66
2019-03-03T18:21:47.819Z,983.50
2019-03-03T18:23:49.775Z,983.67
2019-03-03T18:25:47.845Z,983.65
2019-03-03T18:27:47.959Z,983.54
2019-03-03T18:29:47.958Z,983.84
2019-03-03T18:31:47.658Z,983.60
2019-03-03T18:33:47.987Z,983.59
2019-03-03T18:35:47.803Z,983.26
2019-03-03T18:37:49.028Z,983.52
2019-03-03T18:39:47.725Z,983.60
2019-03-03T18:41:49.019Z,983.31
2019-03-03T18:43:47.742Z,983.43
2019-03-03T18:45:47.746Z,983.38
2019-03-03T18:47:47.967Z,983.26
2019-03-03T18:49:47.847Z,983.46
2019-03-03T18:51:47.985Z,983.12
2019-03-03T18:53:47.806Z,983.61
2019-03-03T18:55:49.026Z,983.23
2019-03-03T18:57:47.823Z,983.57
2019-03-03T18:59:47.848Z,983.42
2019-03-03T19:01:47.846Z,983.23
2019-03-03T19:03:47.658Z,983.14
2019-03-03T19:05:55.432Z,983.36
2019-03-03T19:07:47.657Z,983.31
2019-03-03T19:09:47.655Z,983.30
2019-03-03T19:11:47.651Z,983.07
2019-03-03T19:13:47.920Z,983.21
2019-03-03T19:15:47.721Z,983.28
2019-03-03T19:17:47.865Z,983.20
2019-03-03T19:19:47.949Z,982.64
2019-03-03T19:21:47.854Z,983.47
2019-03-03T19:23:47.816Z,982.82
2019-03-03T19:25:47.679Z,983.08
2019-03-03T19:27:48.129Z,983.23
2019-03-03T19:29:48.010Z,982.91
2019-03-03T19:31:47.834Z,982.92
2019-03-03T19:33:48.029Z,982.89
2019-03-03T19:35:48.184Z,982.85
2019-03-03T19:37:47.796Z,982.91
2019-03-03T19:39:47.993Z,982.63
2019-03-03T19:41:49.020Z,982.98
2019-03-03T19:43:47.881Z,983.27
2019-03-03T19:45:47.767Z,982.96
2019-03-03T19:47:47.920Z,982.80
2019-03-03T19:49:47.696Z,982.71
2019-03-03T19:51:47.935Z,982.84
2019-03-03T19:53:47.978Z,983.00
2019-03-03T19:55:48.057Z,982.77
2019-03-03T19:57:47.865Z,982.83
2019-03-03T19:59:48.081Z,982.56
2019-03-03T20:01:47.815Z,982.24
2019-03-03T20:03:48.107Z,982.46
2019-03-03T20:05:47.904Z,982.70
2019-03-03T20:07:48.083Z,981.97
2019-03-03T20:09:47.822Z,982.42
2019-03-03T20:11:48.200Z,982.27
2019-03-03T20:13:47.856Z,982.14
2019-03-03T20:15:48.069Z,982.64
2019-03-03T20:17:47.845Z,982.53
2019-03-03T20:19:47.844Z,982.08
2019-03-03T20:21:47.410Z,982.34
2019-03-03T20:23:47.916Z,982.70
2019-03-03T20:25:47.619Z,982.33
2019-03-03T20:27:47.436Z,982.40
2019-03-03T20:29:47.999Z,982.15
2019-03-03T20:31:47.962Z,982.23
2019-03-03T20:33:47.320Z,982.46
2019-03-03T20:35:47.471Z,981.80
2019-03-03T20:37:47.698Z,982.21
2019-03-03T20:39:47.396Z,981.89
2019-03-03T20:41:47.506Z,981.76
2019-03-03T20:43:47.271Z,981.80
2019-03-03T20:45:47.476Z,981.92
2019-03-03T20:47:47.551Z,981.35
2019-03-03T20:49:47.727Z,981.71
2019-03-03T20:51:47.368Z,981.64
2019-03-03T20:53:47.582Z,981.67
2019-03-03T20:55:47.493Z,982.03
2019-03-03T20:57:47.398Z,981.71
2019-03-03T20:59:48.128Z,981.58
2019-03-03T21:01:47.320Z,981.93
2019-03-03T21:03:47.455Z,981.25
2019-03-03T21:05:47.953Z,981.83
2019-03-03T21:07:51.507Z,981.88
2019-03-03T21:09:47.719Z,981.58
2019-03-03T21:11:47.790Z,981.57
2019-03-03T21:13:47.591Z,981.76
2019-03-03T21:15:47.604Z,981.53
2019-03-03T21:17:47.622Z,981.71
2019-03-03T21:19:47.431Z,981.20
2019-03-03T21:21:47.365Z,981.57
2019-03-03T21:23:47.582Z,981.35
2019-03-03T21:25:47.365Z,981.36
2019-03-03T21:27:47.644Z,981.53
2019-03-03T21:29:47.589Z,981.24
2019-03-03T21:31:47.593Z,981.02
2019-03-03T21:33:47.599Z,981.27
2019-03-03T21:35:47.816Z,980.89
2019-03-03T21:37:47.833Z,981.18
2019-03-03T21:39:47.435Z,981.18
2019-03-03T21:41:47.754Z,980.99
2019-03-03T21:43:47.976Z,980.71
2019-03-03T21:45:47.774Z,980.66
2019-03-03T21:47:47.379Z,980.98
2019-03-03T21:49:47.439Z,980.81
2019-03-03T21:51:47.715Z,980.87
2019-03-03T21:53:47.578Z,980.79
2019-03-03T21:55:47.530Z,980.62
2019-03-03T21:57:47.602Z,980.58
2019-03-03T21:59:47.968Z,980.70
2019-03-03T22:01:47.570Z,980.87
2019-03-03T22:03:47.534Z,980.47
2019-03-03T22:05:48.197Z,980.56
2019-03-03T22:07:47.580Z,980.56
2019-03-03T22:09:47.758Z,980.24
2019-03-03T22:11:48.242Z,980.31
2019-03-03T22:13:47.633Z,980.21
2019-03-03T22:15:47.948Z,980.09
2019-03-03T22:17:47.703Z,979.91
2019-03-03T22:19:47.709Z,979.86
2019-03-03T22:21:47.790Z,980.17
2019-03-03T22:23:47.589Z,980.09
2019-03-03T22:25:47.816Z,980.14
2019-03-03T22:27:47.611Z,979.90
2019-03-03T22:29:47.627Z,980.05
2019-03-03T22:31:47.600Z,979.92
2019-03-03T22:33:47.600Z,979.79
2019-03-03T22:35:47.662Z,979.94
2019-03-03T22:37:47.648Z,979.91
2019-03-03T22:39:48.295Z,979.80
2019-03-03T22:41:47.873Z,979.86
2019-03-03T22:43:47.710Z,979.53
2019-03-03T22:45:47.712Z,979.78
2019-03-03T22:47:47.844Z,979.89
2019-03-03T22:49:47.843Z,979.83
2019-03-03T22:51:47.654Z,979.68
2019-03-03T22:53:47.451Z,979.52
2019-03-03T22:55:47.574Z,979.62
2019-03-03T22:57:47.797Z,979.24
2019-03-03T22:59:47.498Z,979.15
2019-03-03T23:01:47.761Z,979.31
2019-03-03T23:03:47.517Z,979.28
2019-03-03T23:05:47.481Z,979.26
2019-03-03T23:07:47.752Z,979.22
2019-03-03T23:09:47.553Z,979.03
2019-03-03T23:11:47.736Z,979.68
2019-03-03T23:13:47.678Z,979.12
2019-03-03T23:15:48.000Z,979.23
2019-03-03T23:17:47.566Z,979.44
2019-03-03T23:19:47.612Z,979.37
2019-03-03T23:21:48.247Z,979.06
2019-03-03T23:23:47.680Z,978.92
2019-03-03T23:25:47.852Z,979.11
2019-03-03T23:27:47.653Z,979.03
2019-03-03T23:29:47.872Z,979.54
2019-03-03T23:31:47.477Z,979.09
2019-03-03T23:33:47.871Z,979.26
2019-03-03T23:35:47.702Z,979.04
2019-03-03T23:37:47.715Z,978.78
2019-03-03T23:39:47.520Z,978.96
2019-03-03T23:41:47.740Z,978.78
2019-03-03T23:43:47.751Z,979.12
2019-03-03T23:45:47.766Z,979.23
2019-03-03T23:47:47.629Z,979.24
2019-03-03T23:49:47.779Z,979.04
2019-03-03T23:51:48.110Z,978.98
2019-03-03T23:53:48.117Z,978.68
2019-03-03T23:55:47.712Z,978.42
2019-03-03T23:57:47.623Z,978.87
2019-03-03T23:59:47.721Z,978.68
